sensor_id;sensor_type;location;lat;lon;timestamp;temperature;humidity
11385;DHT22;5747;56.748;13.882;2023-05-20T00:00:56;2.70;99.90
11385;DHT22;5747;56.748;13.882;2023-05-20T00:03:24;2.60;99.90
11385;DHT22;5747;56.748;13.882;2023-05-20T00:05:52;2.60;99.90
11385;DHT22;5747;56.748;13.882;2023-05-20T00:08:20;2.60;99.90
11385;DHT22;5747;56.748;13.882;2023-05-20T00:10:48;2.50;99.90
11385;DHT22;5747;56.748;13.882;2023-05-20T00:13:16;2.50;99.90
11385;DHT22;5747;56.748;13.882;2023-05-20T00:15:44;2.50;99.90
11385;DHT22;5747;56.748;13.882;2023-05-20T00:18:14;2.40;99.90
11385;DHT22;5747;56.748;13.882;2023-05-20T00:20:42;2.40;99.90
11385;DHT22;5747;56.748;13.882;2023-05-20T00:23:10;2.30;99.90
11385;DHT22;5747;56.748;13.882;2023-05-20T00:25:38;2.30;99.90
11385;DHT22;5747;56.748;13.882;2023-05-20T00:28:06;2.30;99.90
11385;DHT22;5747;56.748;13.882;2023-05-20T00:30:34;2.30;99.90
11385;DHT22;5747;56.748;13.882;2023-05-20T00:33:02;2.20;99.90
11385;DHT22;5747;56.748;13.882;2023-05-20T00:35:32;2.20;99.90
11385;DHT22;5747;56.748;13.882;2023-05-20T00:38:00;2.00;99.90
11385;DHT22;5747;56.748;13.882;2023-05-20T00:40:28;1.90;99.90
11385;DHT22;5747;56.748;13.882;2023-05-20T00:42:56;1.80;99.90
11385;DHT22;5747;56.748;13.882;2023-05-20T00:45:25;1.70;99.90
11385;DHT22;5747;56.748;13.882;2023-05-20T00:47:53;1.70;99.90
11385;DHT22;5747;56.748;13.882;2023-05-20T00:50:25;1.60;99.90
11385;DHT22;5747;56.748;13.882;2023-05-20T00:52:55;1.50;99.90
11385;DHT22;5747;56.748;13.882;2023-05-20T00:55:24;1.50;99.90
11385;DHT22;5747;56.748;13.882;2023-05-20T00:57:53;1.40;99.90
11385;DHT22;5747;56.748;13.882;2023-05-20T01:00:22;1.40;99.90
11385;DHT22;5747;56.748;13.882;2023-05-20T01:02:50;1.40;99.90
11385;DHT22;5747;56.748;13.882;2023-05-20T01:05:18;1.30;99.90
11385;DHT22;5747;56.748;13.882;2023-05-20T01:07:46;1.30;99.90
11385;DHT22;5747;56.748;13.882;2023-05-20T01:10:16;1.30;99.90
11385;DHT22;5747;56.748;13.882;2023-05-20T01:12:48;1.30;99.90
11385;DHT22;5747;56.748;13.882;2023-05-20T01:15:18;1.20;99.90
11385;DHT22;5747;56.748;13.882;2023-05-20T01:17:51;1.20;99.90
11385;DHT22;5747;56.748;13.882;2023-05-20T01:20:20;1.20;99.90
11385;DHT22;5747;56.748;13.882;2023-05-20T01:22:52;1.10;99.90
11385;DHT22;5747;56.748;13.882;2023-05-20T01:25:21;1.10;99.90
11385;DHT22;5747;56.748;13.882;2023-05-20T01:27:51;1.10;99.90
11385;DHT22;5747;56.748;13.882;2023-05-20T01:30:19;1.00;99.90
11385;DHT22;5747;56.748;13.882;2023-05-20T01:32:52;1.00;99.90
11385;DHT22;5747;56.748;13.882;2023-05-20T01:35:22;0.90;99.90
11385;DHT22;5747;56.748;13.882;2023-05-20T01:37:52;0.90;99.90
11385;DHT22;5747;56.748;13.882;2023-05-20T01:40:21;0.90;99.90
11385;DHT22;5747;56.748;13.882;2023-05-20T01:42:50;0.80;99.90
11385;DHT22;5747;56.748;13.882;2023-05-20T01:45:22;0.70;99.90
11385;DHT22;5747;56.748;13.882;2023-05-20T01:47:50;0.70;99.90
11385;DHT22;5747;56.748;13.882;2023-05-20T01:50:18;0.60;99.90
11385;DHT22;5747;56.748;13.882;2023-05-20T01:52:46;0.60;99.90
11385;DHT22;5747;56.748;13.882;2023-05-20T01:55:16;0.60;99.90
11385;DHT22;5747;56.748;13.882;2023-05-20T01:57:44;0.60;99.90
11385;DHT22;5747;56.748;13.882;2023-05-20T02:00:13;0.50;99.90
11385;DHT22;5747;56.748;13.882;2023-05-20T02:02:43;0.50;99.90
11385;DHT22;5747;56.748;13.882;2023-05-20T02:05:12;0.40;99.90
11385;DHT22;5747;56.748;13.882;2023-05-20T02:07:42;0.50;99.90
11385;DHT22;5747;56.748;13.882;2023-05-20T02:10:10;0.40;99.90
11385;DHT22;5747;56.748;13.882;2023-05-20T02:12:39;0.40;99.90
11385;DHT22;5747;56.748;13.882;2023-05-20T02:15:08;0.30;99.90
11385;DHT22;5747;56.748;13.882;2023-05-20T02:17:36;0.30;99.90
11385;DHT22;5747;56.748;13.882;2023-05-20T02:20:06;0.20;99.90
11385;DHT22;5747;56.748;13.882;2023-05-20T02:22:36;0.20;99.90
11385;DHT22;5747;56.748;13.882;2023-05-20T02:25:05;0.20;99.90
11385;DHT22;5747;56.748;13.882;2023-05-20T02:27:35;0.20;99.90
11385;DHT22;5747;56.748;13.882;2023-05-20T02:30:06;0.10;99.90
11385;DHT22;5747;56.748;13.882;2023-05-20T02:32:35;0.10;99.90
11385;DHT22;5747;56.748;13.882;2023-05-20T02:35:04;0.10;99.90
11385;DHT22;5747;56.748;13.882;2023-05-20T02:37:32;0.00;99.90
11385;DHT22;5747;56.748;13.882;2023-05-20T02:40:01;0.00;99.90
11385;DHT22;5747;56.748;13.882;2023-05-20T02:42:29;0.00;99.90
11385;DHT22;5747;56.748;13.882;2023-05-20T02:44:57;0.00;99.90
11385;DHT22;5747;56.748;13.882;2023-05-20T02:47:26;-0.10;99.90
11385;DHT22;5747;56.748;13.882;2023-05-20T02:49:55;-0.10;99.90
11385;DHT22;5747;56.748;13.882;2023-05-20T02:52:23;-0.10;99.90
11385;DHT22;5747;56.748;13.882;2023-05-20T02:54:51;-0.10;99.90
11385;DHT22;5747;56.748;13.882;2023-05-20T02:57:19;-0.10;99.90
11385;DHT22;5747;56.748;13.882;2023-05-20T02:59:48;-0.10;99.90
11385;DHT22;5747;56.748;13.882;2023-05-20T03:02:16;-0.10;99.90
11385;DHT22;5747;56.748;13.882;2023-05-20T03:04:45;0.00;99.90
11385;DHT22;5747;56.748;13.882;2023-05-20T03:07:14;0.00;99.90
11385;DHT22;5747;56.748;13.882;2023-05-20T03:09:45;0.00;99.90
11385;DHT22;5747;56.748;13.882;2023-05-20T03:12:13;0.00;99.90
11385;DHT22;5747;56.748;13.882;2023-05-20T03:14:41;0.00;99.90
11385;DHT22;5747;56.748;13.882;2023-05-20T03:17:10;0.10;99.90
11385;DHT22;5747;56.748;13.882;2023-05-20T03:19:39;0.10;99.90
11385;DHT22;5747;56.748;13.882;2023-05-20T03:22:08;0.10;99.90
11385;DHT22;5747;56.748;13.882;2023-05-20T03:24:36;0.20;99.90
11385;DHT22;5747;56.748;13.882;2023-05-20T03:27:05;0.20;99.90
11385;DHT22;5747;56.748;13.882;2023-05-20T03:29:34;0.30;99.90
11385;DHT22;5747;56.748;13.882;2023-05-20T03:32:02;0.30;99.90
11385;DHT22;5747;56.748;13.882;2023-05-20T03:34:30;0.40;99.90
11385;DHT22;5747;56.748;13.882;2023-05-20T03:36:59;0.40;99.90
11385;DHT22;5747;56.748;13.882;2023-05-20T03:39:29;0.40;99.90
11385;DHT22;5747;56.748;13.882;2023-05-20T03:41:59;0.40;99.90
11385;DHT22;5747;56.748;13.882;2023-05-20T03:44:27;0.40;99.90
11385;DHT22;5747;56.748;13.882;2023-05-20T03:46:55;0.40;99.90
11385;DHT22;5747;56.748;13.882;2023-05-20T03:49:23;0.50;99.90
11385;DHT22;5747;56.748;13.882;2023-05-20T03:51:51;0.60;99.90
11385;DHT22;5747;56.748;13.882;2023-05-20T03:54:20;0.60;99.90
11385;DHT22;5747;56.748;13.882;2023-05-20T03:56:51;0.70;99.90
11385;DHT22;5747;56.748;13.882;2023-05-20T03:59:20;0.70;99.90
11385;DHT22;5747;56.748;13.882;2023-05-20T04:01:49;0.70;99.90
11385;DHT22;5747;56.748;13.882;2023-05-20T04:04:17;0.90;99.90
11385;DHT22;5747;56.748;13.882;2023-05-20T04:06:45;1.10;99.90
11385;DHT22;5747;56.748;13.882;2023-05-20T04:09:14;1.00;99.90
11385;DHT22;5747;56.748;13.882;2023-05-20T04:11:42;1.20;99.90
11385;DHT22;5747;56.748;13.882;2023-05-20T04:14:11;1.10;99.90
11385;DHT22;5747;56.748;13.882;2023-05-20T04:16:39;1.10;99.90
11385;DHT22;5747;56.748;13.882;2023-05-20T04:19:09;1.30;99.90
11385;DHT22;5747;56.748;13.882;2023-05-20T04:21:37;1.40;99.90
11385;DHT22;5747;56.748;13.882;2023-05-20T04:24:06;1.60;99.90
11385;DHT22;5747;56.748;13.882;2023-05-20T04:26:34;1.80;99.90
11385;DHT22;5747;56.748;13.882;2023-05-20T04:29:02;1.90;99.90
11385;DHT22;5747;56.748;13.882;2023-05-20T04:31:33;2.10;99.90
11385;DHT22;5747;56.748;13.882;2023-05-20T04:34:01;2.30;99.90
11385;DHT22;5747;56.748;13.882;2023-05-20T04:36:30;2.50;99.90
11385;DHT22;5747;56.748;13.882;2023-05-20T04:39:01;2.70;99.90
11385;DHT22;5747;56.748;13.882;2023-05-20T04:41:30;2.90;99.90
11385;DHT22;5747;56.748;13.882;2023-05-20T04:43:58;3.10;99.90
11385;DHT22;5747;56.748;13.882;2023-05-20T04:46:28;3.30;99.90
11385;DHT22;5747;56.748;13.882;2023-05-20T04:48:59;3.40;99.90
11385;DHT22;5747;56.748;13.882;2023-05-20T04:51:27;3.60;99.90
11385;DHT22;5747;56.748;13.882;2023-05-20T04:53:55;3.80;99.90
11385;DHT22;5747;56.748;13.882;2023-05-20T04:56:27;4.10;99.90
11385;DHT22;5747;56.748;13.882;2023-05-20T04:58:55;4.50;99.90
11385;DHT22;5747;56.748;13.882;2023-05-20T05:01:24;4.90;99.90
11385;DHT22;5747;56.748;13.882;2023-05-20T05:03:52;5.10;99.90
11385;DHT22;5747;56.748;13.882;2023-05-20T05:06:22;5.20;99.90
11385;DHT22;5747;56.748;13.882;2023-05-20T05:08:50;5.30;99.90
11385;DHT22;5747;56.748;13.882;2023-05-20T05:11:19;5.50;99.90
11385;DHT22;5747;56.748;13.882;2023-05-20T05:13:47;5.90;99.90
11385;DHT22;5747;56.748;13.882;2023-05-20T05:16:16;6.40;99.90
11385;DHT22;5747;56.748;13.882;2023-05-20T05:18:44;6.70;99.90
11385;DHT22;5747;56.748;13.882;2023-05-20T05:21:12;6.90;99.90
11385;DHT22;5747;56.748;13.882;2023-05-20T05:23:42;7.20;99.90
11385;DHT22;5747;56.748;13.882;2023-05-20T05:26:10;7.50;99.90
11385;DHT22;5747;56.748;13.882;2023-05-20T05:28:40;7.80;99.90
11385;DHT22;5747;56.748;13.882;2023-05-20T05:31:08;8.10;99.90
11385;DHT22;5747;56.748;13.882;2023-05-20T05:33:36;8.80;99.90
11385;DHT22;5747;56.748;13.882;2023-05-20T05:36:05;9.90;99.90
11385;DHT22;5747;56.748;13.882;2023-05-20T05:38:33;10.80;99.90
11385;DHT22;5747;56.748;13.882;2023-05-20T05:41:03;11.80;99.90
11385;DHT22;5747;56.748;13.882;2023-05-20T05:43:31;12.60;99.90
11385;DHT22;5747;56.748;13.882;2023-05-20T05:46:01;12.90;99.90
11385;DHT22;5747;56.748;13.882;2023-05-20T05:48:29;13.00;99.90
11385;DHT22;5747;56.748;13.882;2023-05-20T05:50:57;13.90;99.90
11385;DHT22;5747;56.748;13.882;2023-05-20T05:53:26;14.50;99.90
11385;DHT22;5747;56.748;13.882;2023-05-20T05:55:54;14.70;99.90
11385;DHT22;5747;56.748;13.882;2023-05-20T05:58:23;15.40;99.90
11385;DHT22;5747;56.748;13.882;2023-05-20T06:00:52;15.60;99.90
11385;DHT22;5747;56.748;13.882;2023-05-20T06:03:20;16.40;99.90
11385;DHT22;5747;56.748;13.882;2023-05-20T06:05:49;17.20;99.90
11385;DHT22;5747;56.748;13.882;2023-05-20T06:08:19;17.40;99.90
11385;DHT22;5747;56.748;13.882;2023-05-20T06:10:47;17.60;99.90
11385;DHT22;5747;56.748;13.882;2023-05-20T06:13:16;17.50;99.90
11385;DHT22;5747;56.748;13.882;2023-05-20T06:15:48;17.50;99.90
11385;DHT22;5747;56.748;13.882;2023-05-20T06:18:16;17.30;99.90
11385;DHT22;5747;56.748;13.882;2023-05-20T06:20:45;16.80;99.90
11385;DHT22;5747;56.748;13.882;2023-05-20T06:23:13;16.40;99.90
11385;DHT22;5747;56.748;13.882;2023-05-20T06:25:56;17.20;99.90
11385;DHT22;5747;56.748;13.882;2023-05-20T06:28:24;17.80;99.90
11385;DHT22;5747;56.748;13.882;2023-05-20T06:30:54;18.50;99.90
11385;DHT22;5747;56.748;13.882;2023-05-20T06:33:25;18.50;99.90
11385;DHT22;5747;56.748;13.882;2023-05-20T06:35:58;18.80;99.90
11385;DHT22;5747;56.748;13.882;2023-05-20T06:38:29;18.90;99.90
11385;DHT22;5747;56.748;13.882;2023-05-20T06:40:57;19.00;99.90
11385;DHT22;5747;56.748;13.882;2023-05-20T06:43:26;18.90;99.90
11385;DHT22;5747;56.748;13.882;2023-05-20T06:46:09;18.60;99.90
11385;DHT22;5747;56.748;13.882;2023-05-20T06:48:42;18.10;99.90
11385;DHT22;5747;56.748;13.882;2023-05-20T06:51:10;17.90;99.90
11385;DHT22;5747;56.748;13.882;2023-05-20T06:53:39;17.30;99.90
11385;DHT22;5747;56.748;13.882;2023-05-20T06:56:07;16.90;99.90
11385;DHT22;5747;56.748;13.882;2023-05-20T06:58:35;16.30;99.90
11385;DHT22;5747;56.748;13.882;2023-05-20T07:01:04;15.70;99.90
11385;DHT22;5747;56.748;13.882;2023-05-20T07:03:34;15.20;99.90
11385;DHT22;5747;56.748;13.882;2023-05-20T07:06:02;15.20;99.90
11385;DHT22;5747;56.748;13.882;2023-05-20T07:08:30;15.00;99.90
11385;DHT22;5747;56.748;13.882;2023-05-20T07:10:59;15.00;99.90
11385;DHT22;5747;56.748;13.882;2023-05-20T07:13:28;14.70;99.90
11385;DHT22;5747;56.748;13.882;2023-05-20T07:15:57;14.70;99.90
11385;DHT22;5747;56.748;13.882;2023-05-20T07:18:29;14.50;99.90
11385;DHT22;5747;56.748;13.882;2023-05-20T07:20:58;14.20;99.90
11385;DHT22;5747;56.748;13.882;2023-05-20T07:23:52;14.10;99.90
11385;DHT22;5747;56.748;13.882;2023-05-20T07:26:21;14.00;99.90
11385;DHT22;5747;56.748;13.882;2023-05-20T07:28:49;14.00;99.90
11385;DHT22;5747;56.748;13.882;2023-05-20T07:31:17;14.20;99.90
11385;DHT22;5747;56.748;13.882;2023-05-20T07:33:47;14.30;99.90
11385;DHT22;5747;56.748;13.882;2023-05-20T07:36:16;14.10;99.90
11385;DHT22;5747;56.748;13.882;2023-05-20T07:38:48;14.30;99.90
11385;DHT22;5747;56.748;13.882;2023-05-20T07:41:30;14.40;99.90
11385;DHT22;5747;56.748;13.882;2023-05-20T07:44:01;14.40;99.90
11385;DHT22;5747;56.748;13.882;2023-05-20T07:46:30;14.40;99.90
11385;DHT22;5747;56.748;13.882;2023-05-20T07:48:58;14.50;99.90
11385;DHT22;5747;56.748;13.882;2023-05-20T07:51:27;14.60;99.90
11385;DHT22;5747;56.748;13.882;2023-05-20T07:53:56;14.60;99.90
11385;DHT22;5747;56.748;13.882;2023-05-20T07:56:25;14.80;99.90
11385;DHT22;5747;56.748;13.882;2023-05-20T07:58:55;14.80;99.90
11385;DHT22;5747;56.748;13.882;2023-05-20T08:01:28;14.60;99.90
11385;DHT22;5747;56.748;13.882;2023-05-20T08:03:57;14.60;99.90
11385;DHT22;5747;56.748;13.882;2023-05-20T08:06:25;14.50;99.90
11385;DHT22;5747;56.748;13.882;2023-05-20T08:08:58;14.60;99.90
11385;DHT22;5747;56.748;13.882;2023-05-20T08:11:32;14.80;99.90
11385;DHT22;5747;56.748;13.882;2023-05-20T08:14:00;14.90;99.90
11385;DHT22;5747;56.748;13.882;2023-05-20T08:16:35;14.90;99.90
11385;DHT22;5747;56.748;13.882;2023-05-20T08:19:04;14.90;99.90
11385;DHT22;5747;56.748;13.882;2023-05-20T08:21:32;15.00;99.90
11385;DHT22;5747;56.748;13.882;2023-05-20T08:24:03;15.00;99.90
11385;DHT22;5747;56.748;13.882;2023-05-20T08:26:32;15.00;99.90
11385;DHT22;5747;56.748;13.882;2023-05-20T08:29:00;15.10;99.90
11385;DHT22;5747;56.748;13.882;2023-05-20T08:31:28;15.20;99.90
11385;DHT22;5747;56.748;13.882;2023-05-20T08:33:56;15.30;99.90
11385;DHT22;5747;56.748;13.882;2023-05-20T08:36:24;15.40;99.90
11385;DHT22;5747;56.748;13.882;2023-05-20T08:38:53;15.50;99.90
11385;DHT22;5747;56.748;13.882;2023-05-20T08:41:23;15.50;99.90
11385;DHT22;5747;56.748;13.882;2023-05-20T08:43:52;15.50;99.90
11385;DHT22;5747;56.748;13.882;2023-05-20T08:46:21;15.50;99.90
11385;DHT22;5747;56.748;13.882;2023-05-20T08:48:49;15.60;99.90
11385;DHT22;5747;56.748;13.882;2023-05-20T08:51:20;15.50;99.90
11385;DHT22;5747;56.748;13.882;2023-05-20T08:53:50;15.60;99.90
11385;DHT22;5747;56.748;13.882;2023-05-20T08:56:19;15.60;99.90
11385;DHT22;5747;56.748;13.882;2023-05-20T08:58:49;15.60;99.90
11385;DHT22;5747;56.748;13.882;2023-05-20T09:01:17;15.70;99.90
11385;DHT22;5747;56.748;13.882;2023-05-20T09:03:45;15.70;99.90
11385;DHT22;5747;56.748;13.882;2023-05-20T09:06:16;15.80;99.90
11385;DHT22;5747;56.748;13.882;2023-05-20T09:08:47;15.70;99.90
11385;DHT22;5747;56.748;13.882;2023-05-20T09:11:16;15.70;99.90
11385;DHT22;5747;56.748;13.882;2023-05-20T09:13:44;15.70;99.90
11385;DHT22;5747;56.748;13.882;2023-05-20T09:16:13;15.80;99.90
11385;DHT22;5747;56.748;13.882;2023-05-20T09:18:42;15.80;99.90
11385;DHT22;5747;56.748;13.882;2023-05-20T09:21:10;15.80;99.90
11385;DHT22;5747;56.748;13.882;2023-05-20T09:23:38;16.00;99.90
11385;DHT22;5747;56.748;13.882;2023-05-20T09:26:06;15.90;99.90
11385;DHT22;5747;56.748;13.882;2023-05-20T09:28:34;16.20;99.90
11385;DHT22;5747;56.748;13.882;2023-05-20T09:31:05;16.30;99.90
11385;DHT22;5747;56.748;13.882;2023-05-20T09:33:36;16.30;99.90
11385;DHT22;5747;56.748;13.882;2023-05-20T09:36:07;16.40;99.90
11385;DHT22;5747;56.748;13.882;2023-05-20T09:38:37;16.30;99.90
11385;DHT22;5747;56.748;13.882;2023-05-20T09:41:07;16.30;99.90
11385;DHT22;5747;56.748;13.882;2023-05-20T09:43:35;16.30;99.90
11385;DHT22;5747;56.748;13.882;2023-05-20T09:46:04;16.30;99.90
11385;DHT22;5747;56.748;13.882;2023-05-20T09:48:36;16.20;99.90
11385;DHT22;5747;56.748;13.882;2023-05-20T09:51:04;16.40;99.90
11385;DHT22;5747;56.748;13.882;2023-05-20T09:53:36;16.60;99.90
11385;DHT22;5747;56.748;13.882;2023-05-20T09:56:04;16.60;99.90
11385;DHT22;5747;56.748;13.882;2023-05-20T09:58:33;16.60;99.90
11385;DHT22;5747;56.748;13.882;2023-05-20T10:01:02;16.70;99.90
11385;DHT22;5747;56.748;13.882;2023-05-20T10:03:31;16.70;99.90
11385;DHT22;5747;56.748;13.882;2023-05-20T10:06:22;16.80;99.90
11385;DHT22;5747;56.748;13.882;2023-05-20T10:09:09;16.90;99.90
11385;DHT22;5747;56.748;13.882;2023-05-20T10:11:44;17.00;99.90
11385;DHT22;5747;56.748;13.882;2023-05-20T10:14:28;16.90;99.90
11385;DHT22;5747;56.748;13.882;2023-05-20T10:17:05;16.80;99.90
11385;DHT22;5747;56.748;13.882;2023-05-20T10:19:36;16.80;99.90
11385;DHT22;5747;56.748;13.882;2023-05-20T10:22:06;16.90;99.90
11385;DHT22;5747;56.748;13.882;2023-05-20T10:24:36;17.00;99.90
11385;DHT22;5747;56.748;13.882;2023-05-20T10:27:09;17.20;99.90
11385;DHT22;5747;56.748;13.882;2023-05-20T10:29:44;17.20;99.90
11385;DHT22;5747;56.748;13.882;2023-05-20T10:32:31;17.30;99.90
11385;DHT22;5747;56.748;13.882;2023-05-20T10:35:02;17.30;99.90
11385;DHT22;5747;56.748;13.882;2023-05-20T10:37:40;17.20;99.90
11385;DHT22;5747;56.748;13.882;2023-05-20T10:40:11;17.30;99.90
11385;DHT22;5747;56.748;13.882;2023-05-20T10:42:39;17.30;99.90
11385;DHT22;5747;56.748;13.882;2023-05-20T10:45:09;17.20;99.90
11385;DHT22;5747;56.748;13.882;2023-05-20T10:47:52;17.00;99.90
11385;DHT22;5747;56.748;13.882;2023-05-20T10:50:27;17.20;99.90
11385;DHT22;5747;56.748;13.882;2023-05-20T10:53:03;17.60;99.90
11385;DHT22;5747;56.748;13.882;2023-05-20T10:55:36;17.60;99.90
11385;DHT22;5747;56.748;13.882;2023-05-20T10:58:05;17.70;99.90
11385;DHT22;5747;56.748;13.882;2023-05-20T11:00:34;17.90;99.90
11385;DHT22;5747;56.748;13.882;2023-05-20T11:03:04;18.10;99.90
11385;DHT22;5747;56.748;13.882;2023-05-20T11:05:33;18.10;99.90
11385;DHT22;5747;56.748;13.882;2023-05-20T11:08:05;18.10;99.90
11385;DHT22;5747;56.748;13.882;2023-05-20T11:10:46;18.30;99.90
11385;DHT22;5747;56.748;13.882;2023-05-20T11:13:14;18.30;99.90
11385;DHT22;5747;56.748;13.882;2023-05-20T11:15:42;18.50;99.90
11385;DHT22;5747;56.748;13.882;2023-05-20T11:18:11;18.60;99.90
11385;DHT22;5747;56.748;13.882;2023-05-20T11:20:45;18.50;99.90
11385;DHT22;5747;56.748;13.882;2023-05-20T11:23:15;18.50;99.90
11385;DHT22;5747;56.748;13.882;2023-05-20T11:25:43;18.40;99.90
11385;DHT22;5747;56.748;13.882;2023-05-20T11:28:12;18.40;99.90
11385;DHT22;5747;56.748;13.882;2023-05-20T11:30:41;18.50;99.90
11385;DHT22;5747;56.748;13.882;2023-05-20T11:33:11;18.40;99.90
11385;DHT22;5747;56.748;13.882;2023-05-20T11:35:44;18.30;99.90
11385;DHT22;5747;56.748;13.882;2023-05-20T11:38:14;18.10;99.90
11385;DHT22;5747;56.748;13.882;2023-05-20T11:40:44;18.20;99.90
11385;DHT22;5747;56.748;13.882;2023-05-20T11:43:18;18.40;99.90
11385;DHT22;5747;56.748;13.882;2023-05-20T11:45:51;18.60;99.90
11385;DHT22;5747;56.748;13.882;2023-05-20T11:48:20;18.80;99.90
11385;DHT22;5747;56.748;13.882;2023-05-20T11:50:48;18.70;99.90
11385;DHT22;5747;56.748;13.882;2023-05-20T11:53:19;18.60;99.90
11385;DHT22;5747;56.748;13.882;2023-05-20T11:55:49;18.60;99.90
11385;DHT22;5747;56.748;13.882;2023-05-20T11:58:18;18.80;99.90
11385;DHT22;5747;56.748;13.882;2023-05-20T12:00:47;18.80;99.90
11385;DHT22;5747;56.748;13.882;2023-05-20T12:03:28;18.90;99.90
11385;DHT22;5747;56.748;13.882;2023-05-20T12:05:59;19.00;99.90
11385;DHT22;5747;56.748;13.882;2023-05-20T12:08:29;19.20;99.90
11385;DHT22;5747;56.748;13.882;2023-05-20T12:10:57;18.90;99.90
11385;DHT22;5747;56.748;13.882;2023-05-20T12:13:25;18.90;99.90
11385;DHT22;5747;56.748;13.882;2023-05-20T12:16:03;19.10;99.90
11385;DHT22;5747;56.748;13.882;2023-05-20T12:18:32;19.20;99.90
11385;DHT22;5747;56.748;13.882;2023-05-20T12:21:00;19.40;99.90
11385;DHT22;5747;56.748;13.882;2023-05-20T12:23:30;19.30;99.90
11385;DHT22;5747;56.748;13.882;2023-05-20T12:26:00;19.20;99.90
11385;DHT22;5747;56.748;13.882;2023-05-20T12:28:28;19.40;99.90
11385;DHT22;5747;56.748;13.882;2023-05-20T12:30:57;19.40;99.90
11385;DHT22;5747;56.748;13.882;2023-05-20T12:33:25;19.40;99.90
11385;DHT22;5747;56.748;13.882;2023-05-20T12:35:54;19.30;99.90
11385;DHT22;5747;56.748;13.882;2023-05-20T12:38:22;19.40;99.90
11385;DHT22;5747;56.748;13.882;2023-05-20T12:40:52;19.60;99.90
11385;DHT22;5747;56.748;13.882;2023-05-20T12:43:20;19.40;99.90
11385;DHT22;5747;56.748;13.882;2023-05-20T12:45:48;19.20;99.90
11385;DHT22;5747;56.748;13.882;2023-05-20T12:48:17;18.90;99.90
11385;DHT22;5747;56.748;13.882;2023-05-20T12:50:45;18.80;99.90
11385;DHT22;5747;56.748;13.882;2023-05-20T12:53:14;18.60;99.90
11385;DHT22;5747;56.748;13.882;2023-05-20T12:55:42;18.70;99.90
11385;DHT22;5747;56.748;13.882;2023-05-20T12:58:12;19.00;99.90
11385;DHT22;5747;56.748;13.882;2023-05-20T13:00:40;19.30;99.90
11385;DHT22;5747;56.748;13.882;2023-05-20T13:03:08;19.20;99.90
11385;DHT22;5747;56.748;13.882;2023-05-20T13:05:37;19.10;99.90
11385;DHT22;5747;56.748;13.882;2023-05-20T13:08:05;19.20;99.90
11385;DHT22;5747;56.748;13.882;2023-05-20T13:10:35;19.10;99.90
11385;DHT22;5747;56.748;13.882;2023-05-20T13:13:03;18.90;99.90
11385;DHT22;5747;56.748;13.882;2023-05-20T13:15:33;18.90;99.90
11385;DHT22;5747;56.748;13.882;2023-05-20T13:18:02;19.10;99.90
11385;DHT22;5747;56.748;13.882;2023-05-20T13:20:35;18.80;99.90
11385;DHT22;5747;56.748;13.882;2023-05-20T13:23:04;18.80;99.90
11385;DHT22;5747;56.748;13.882;2023-05-20T13:25:32;18.90;99.90
11385;DHT22;5747;56.748;13.882;2023-05-20T13:28:00;18.90;99.90
11385;DHT22;5747;56.748;13.882;2023-05-20T13:30:29;19.10;99.90
11385;DHT22;5747;56.748;13.882;2023-05-20T13:32:59;19.20;99.90
11385;DHT22;5747;56.748;13.882;2023-05-20T13:35:28;19.00;99.90
11385;DHT22;5747;56.748;13.882;2023-05-20T13:37:56;18.90;99.90
11385;DHT22;5747;56.748;13.882;2023-05-20T13:40:24;19.00;99.90
11385;DHT22;5747;56.748;13.882;2023-05-20T13:42:53;18.90;99.90
11385;DHT22;5747;56.748;13.882;2023-05-20T13:45:21;19.10;99.90
11385;DHT22;5747;56.748;13.882;2023-05-20T13:47:49;19.00;99.90
11385;DHT22;5747;56.748;13.882;2023-05-20T13:50:19;19.00;99.90
11385;DHT22;5747;56.748;13.882;2023-05-20T13:52:47;19.00;99.90
11385;DHT22;5747;56.748;13.882;2023-05-20T13:55:16;19.20;99.90
11385;DHT22;5747;56.748;13.882;2023-05-20T13:57:44;19.00;99.90
11385;DHT22;5747;56.748;13.882;2023-05-20T14:00:13;18.90;99.90
11385;DHT22;5747;56.748;13.882;2023-05-20T14:02:42;19.00;99.90
11385;DHT22;5747;56.748;13.882;2023-05-20T14:05:10;19.00;99.90
11385;DHT22;5747;56.748;13.882;2023-05-20T14:07:39;19.10;99.90
11385;DHT22;5747;56.748;13.882;2023-05-20T14:10:08;19.30;99.90
11385;DHT22;5747;56.748;13.882;2023-05-20T14:12:43;19.00;99.90
11385;DHT22;5747;56.748;13.882;2023-05-20T14:15:14;18.90;99.90
11385;DHT22;5747;56.748;13.882;2023-05-20T14:17:42;18.90;99.90
11385;DHT22;5747;56.748;13.882;2023-05-20T14:20:13;18.80;99.90
11385;DHT22;5747;56.748;13.882;2023-05-20T14:22:43;18.70;99.90
11385;DHT22;5747;56.748;13.882;2023-05-20T14:25:11;18.90;99.90
11385;DHT22;5747;56.748;13.882;2023-05-20T14:27:40;19.20;99.90
11385;DHT22;5747;56.748;13.882;2023-05-20T14:30:09;19.00;99.90
11385;DHT22;5747;56.748;13.882;2023-05-20T14:32:38;19.00;99.90
11385;DHT22;5747;56.748;13.882;2023-05-20T14:35:07;19.10;99.90
11385;DHT22;5747;56.748;13.882;2023-05-20T14:37:35;18.90;99.90
11385;DHT22;5747;56.748;13.882;2023-05-20T14:40:06;18.70;99.90
11385;DHT22;5747;56.748;13.882;2023-05-20T14:42:34;18.70;99.90
11385;DHT22;5747;56.748;13.882;2023-05-20T14:45:03;18.90;99.90
11385;DHT22;5747;56.748;13.882;2023-05-20T14:47:31;19.10;99.90
11385;DHT22;5747;56.748;13.882;2023-05-20T14:49:59;19.00;99.90
11385;DHT22;5747;56.748;13.882;2023-05-20T14:52:28;19.00;99.90
11385;DHT22;5747;56.748;13.882;2023-05-20T14:54:56;18.90;99.90
11385;DHT22;5747;56.748;13.882;2023-05-20T14:57:25;19.00;99.90
11385;DHT22;5747;56.748;13.882;2023-05-20T14:59:59;19.40;99.90
11385;DHT22;5747;56.748;13.882;2023-05-20T15:02:27;19.50;99.90
11385;DHT22;5747;56.748;13.882;2023-05-20T15:04:55;19.40;99.90
11385;DHT22;5747;56.748;13.882;2023-05-20T15:07:24;19.60;99.90
11385;DHT22;5747;56.748;13.882;2023-05-20T15:09:52;19.30;99.90
11385;DHT22;5747;56.748;13.882;2023-05-20T15:12:20;19.10;99.90
11385;DHT22;5747;56.748;13.882;2023-05-20T15:14:49;19.10;99.90
11385;DHT22;5747;56.748;13.882;2023-05-20T15:17:18;19.20;99.90
11385;DHT22;5747;56.748;13.882;2023-05-20T15:19:46;19.00;99.90
11385;DHT22;5747;56.748;13.882;2023-05-20T15:22:14;19.10;99.90
11385;DHT22;5747;56.748;13.882;2023-05-20T15:24:42;19.20;99.90
11385;DHT22;5747;56.748;13.882;2023-05-20T15:27:10;18.90;99.90
11385;DHT22;5747;56.748;13.882;2023-05-20T15:29:38;18.80;99.90
11385;DHT22;5747;56.748;13.882;2023-05-20T15:32:09;18.70;99.90
11385;DHT22;5747;56.748;13.882;2023-05-20T15:34:38;18.70;99.90
11385;DHT22;5747;56.748;13.882;2023-05-20T15:37:06;18.70;99.90
11385;DHT22;5747;56.748;13.882;2023-05-20T15:39:36;18.80;99.90
11385;DHT22;5747;56.748;13.882;2023-05-20T15:42:05;18.70;99.90
11385;DHT22;5747;56.748;13.882;2023-05-20T15:44:33;18.50;99.90
11385;DHT22;5747;56.748;13.882;2023-05-20T15:47:02;18.70;99.90
11385;DHT22;5747;56.748;13.882;2023-05-20T15:49:33;18.60;99.90